Aérodrome :
LOGIN :

S'inscrire | Disclaimer

   EN    FR    IT 

 










Légende :    VFR   VFR Marginal   IFR   IFR Intensif   IFR Très Intensif
Visi : 
Plafond : 
>= 8 km
>= 3000ft
5 à 8 km
1000 à 3000 ft
1500m à 5 km
500 à 1000 ft
800 à 1500m
200 à 500 ft
< 800m
< 200 ft
Symboles :   Orages  Brouillard  Fortes neiges  Fortes précipitations  Vent > 20 kt
SIGMETs :   Divers  Orages  Givrage  Turbulence  Onde Orograph.  Cendres Volcan.







- Altitude de l'aérodrome : 461 ft
- Code IATA : WIE


ETOU - Wiesbaden Army

DERNIER METAR :
  • 181656Z AUTO 33004KT 9999 CLR 17/03 A3026 RMK AO2 SLP250 T01650025 $

METARs EXPIRÉS :
  • 181556Z AUTO 33005KT 9999 CLR 18/02 A3026 RMK AO2 SLP249 T01820017 $
  • 181456Z AUTO 34004KT 9999 CLR 19/02 A3026 RMK AO2 SLP249 T01900024 57010 $

TAF AMD TAF ETOU
Valide du 18 à 12h jusqu'au 19 à 17h UTC


181247Z 1812/1917 03009KT 9999 FEW040 QNH3024INS
BECMG 1903/1904 VRB06KT 9999 SCT030 BKN040 QNH3035INS
BECMG 1908/1909 VRB06KT 9999 SKC QNH3037INS TX21/1815Z TN04/1905Z
Pas de NOTAMs connus pour ce terrain.



MET'MAP, la Météo Aéronautique d'un coup d'oeil ! - Copyright ORBIFLY Décembre 2007 - Disclaimer

ORBIFLY MET'MAP TEAM :

Programmation & Développement : Alexandra Zaïnal
Conception & Développement : Baudouin d'Aumeries
Co-Programmation & Développement : Marc-Olivier Méhu
Soutien technique & logistique : Manuel Goepfert

Contact : metmap@orbifly.com




SOURCES & CREDITS :

   NOAA